Time;durP1;ratioP1;P1;durP2;ratioP2;P2;SDS_P1;SDS_P2;PMS_P1;PMS_P2;Temp;Humidity;BMP_temperature;BMP_pressure;BME280_temperature;BME280_humidity;BME280_pressure;Samples;Min_cycle;Max_cycle;Signal;HPM_P1;HPM_P2
2023/10/12 00:00:26;;;;;;;21.45;3.97;;;13.30;99.90;;;;;;4893323;29;20419;-78
2023/10/12 00:02:52;;;;;;;17.20;3.33;;;13.40;99.90;;;;;;4893742;29;20431;-79
2023/10/12 00:05:18;;;;;;;15.95;3.78;;;13.30;99.90;;;;;;4874879;29;20492;-79
2023/10/12 00:07:49;;;;;;;14.13;3.70;;;13.20;99.90;;;;;;4882134;29;20928;-79
2023/10/12 00:12:46;;;;;;;18.52;4.20;;;13.30;99.90;;;;;;4897313;29;20505;-79
2023/10/12 00:17:52;;;;;;;24.00;4.78;;;13.20;99.90;;;;;;4896731;29;20904;-78
2023/10/12 00:20:25;;;;;;;21.63;4.38;;;13.00;99.90;;;;;;4896154;29;20458;-79
2023/10/12 00:22:51;;;;;;;18.17;4.90;;;12.90;99.90;;;;;;4863796;29;20519;-78
2023/10/12 00:25:17;;;;;;;17.95;4.25;;;12.90;99.90;;;;;;4884005;29;20518;-78
2023/10/12 00:27:44;;;;;;;20.02;3.88;;;13.30;99.90;;;;;;4890250;29;20928;-78
2023/10/12 00:30:12;;;;;;;18.60;3.95;;;13.20;99.90;;;;;;4889445;29;21024;-78
2023/10/12 00:32:38;;;;;;;17.40;4.10;;;13.50;99.90;;;;;;4896749;29;20423;-78
2023/10/12 00:35:04;;;;;;;19.08;4.40;;;13.20;99.90;;;;;;4886740;29;20432;-78
2023/10/12 00:37:32;;;;;;;15.25;4.32;;;13.20;99.90;;;;;;4893661;29;20885;-78
2023/10/12 00:39:59;;;;;;;20.23;4.50;;;13.40;99.90;;;;;;4893531;29;20419;-78
2023/10/12 00:42:31;;;;;;;14.48;4.00;;;13.20;99.90;;;;;;4869152;29;20949;-78
2023/10/12 00:45:05;;;;;;;19.47;4.53;;;13.20;99.90;;;;;;4892286;29;20564;-77
2023/10/12 00:47:48;;;;;;;16.38;4.13;;;13.00;99.90;;;;;;4878978;29;20507;-77
2023/10/12 00:50:15;;;;;;;19.73;4.30;;;13.50;99.90;;;;;;4885567;29;20419;-78
2023/10/12 00:52:59;;;;;;;17.92;4.50;;;13.40;99.90;;;;;;4891002;29;20523;-78
2023/10/12 00:55:37;;;;;;;17.80;4.05;;;13.10;99.90;;;;;;4897657;29;20441;-78
2023/10/12 00:58:08;;;;;;;15.55;3.67;;;12.80;99.90;;;;;;4892841;29;20760;-77
2023/10/12 01:00:43;;;;;;;16.17;4.00;;;13.10;99.90;;;;;;4900517;29;21079;-78
2023/10/12 01:03:27;;;;;;;17.85;3.92;;;13.40;99.90;;;;;;4890851;29;20425;-77
2023/10/12 01:08:43;;;;;;;15.73;4.85;;;13.10;99.90;;;;;;4884695;29;20419;-78
2023/10/12 01:11:17;;;;;;;16.55;5.07;;;13.20;99.90;;;;;;4887163;29;20424;-78
2023/10/12 01:13:44;;;;;;;17.10;5.10;;;13.50;99.90;;;;;;4869855;29;20432;-77
2023/10/12 01:16:29;;;;;;;18.85;5.38;;;12.90;99.90;;;;;;4880890;29;20948;-77
2023/10/12 01:19:05;;;;;;;16.13;5.25;;;13.10;99.90;;;;;;4887482;29;20427;-78
2023/10/12 01:21:35;;;;;;;17.05;6.13;;;13.30;99.90;;;;;;4880794;29;20802;-78
2023/10/12 01:24:11;;;;;;;17.97;5.40;;;12.90;99.90;;;;;;4896210;29;20430;-78
2023/10/12 01:26:38;;;;;;;18.77;5.60;;;12.50;99.90;;;;;;4894164;29;20545;-78
2023/10/12 01:29:04;;;;;;;17.95;5.65;;;13.10;99.90;;;;;;4863499;29;20425;-77
2023/10/12 01:31:30;;;;;;;22.57;5.87;;;12.90;99.90;;;;;;4867442;29;20787;-78
2023/10/12 01:33:57;;;;;;;24.27;6.30;;;13.00;99.90;;;;;;4890412;29;20435;-78
2023/10/12 01:36:27;;;;;;;22.30;6.13;;;13.00;99.90;;;;;;4892198;29;20773;-77
2023/10/12 01:39:13;;;;;;;19.50;6.15;;;13.10;99.90;;;;;;4895933;29;20776;-77
2023/10/12 01:41:42;;;;;;;16.17;6.22;;;12.80;99.90;;;;;;4890135;29;20419;-78
2023/10/12 01:44:11;;;;;;;21.45;6.45;;;13.20;99.90;;;;;;4895852;29;20463;-77
2023/10/12 01:46:41;;;;;;;19.17;6.72;;;12.80;99.90;;;;;;4890741;29;20424;-77
2023/10/12 01:49:09;;;;;;;20.52;6.40;;;13.40;99.90;;;;;;4864942;29;20427;-76
2023/10/12 01:51:45;;;;;;;20.85;6.45;;;13.40;99.90;;;;;;4909251;29;20424;-78
2023/10/12 01:54:24;;;;;;;18.93;5.47;;;;;;;;;;4898229;29;20524;-78
2023/10/12 01:56:51;;;;;;;20.92;5.75;;;13.20;99.90;;;;;;4891456;29;20431;-76
2023/10/12 01:59:25;;;;;;;15.20;5.22;;;12.70;99.90;;;;;;4894465;29;20442;-78
2023/10/12 02:02:05;;;;;;;18.60;5.07;;;12.90;99.90;;;;;;4898220;29;20414;-79
2023/10/12 02:04:31;;;;;;;16.83;4.95;;;13.30;99.90;;;;;;4897334;29;20423;-78
2023/10/12 02:06:57;;;;;;;15.80;4.83;;;;;;;;;;4897254;29;20429;-78
2023/10/12 02:09:23;;;;;;;15.02;5.18;;;12.90;99.90;;;;;;4884686;29;20496;-78
2023/10/12 02:11:54;;;;;;;19.53;4.63;;;13.10;99.90;;;;;;4889671;29;20907;-78
2023/10/12 02:14:53;;;;;;;20.33;5.50;;;12.90;99.90;;;;;;4897569;29;20982;-77
2023/10/12 02:17:12;;;;;;;20.45;5.18;;;12.90;99.90;;;;;;4885684;29;20777;-77
2023/10/12 02:19:49;;;;;;;22.67;5.35;;;13.00;99.90;;;;;;4898225;29;20469;-77
2023/10/12 02:22:25;;;;;;;18.30;4.85;;;12.90;99.90;;;;;;4892161;29;20792;-78
2023/10/12 02:24:59;;;;;;;19.50;4.47;;;12.90;99.90;;;;;;4895422;29;20423;-78
2023/10/12 02:27:25;;;;;;;20.67;4.55;;;12.90;99.90;;;;;;4902798;29;20419;-77
2023/10/12 02:29:53;;;;;;;15.85;4.80;;;13.00;99.90;;;;;;4892754;29;20450;-78
2023/10/12 02:32:23;;;;;;;17.98;4.90;;;12.90;99.90;;;;;;4896828;29;20411;-78
2023/10/12 02:34:55;;;;;;;14.63;4.57;;;;;;;;;;4895566;29;20494;-77
2023/10/12 02:37:24;;;;;;;18.63;4.93;;;12.80;99.90;;;;;;4895707;29;20979;-77
2023/10/12 02:39:53;;;;;;;17.17;4.93;;;12.70;99.90;;;;;;4890496;29;20437;-79
2023/10/12 02:42:38;;;;;;;18.17;4.57;;;13.10;99.90;;;;;;4896102;29;20451;-78
2023/10/12 02:45:27;;;;;;;17.25;4.63;;;12.60;99.90;;;;;;4893706;29;20796;-79
2023/10/12 02:47:53;;;;;;;21.73;4.78;;;12.80;99.90;;;;;;4874236;29;20454;-78
2023/10/12 02:50:27;;;;;;;16.13;4.60;;;13.00;99.90;;;;;;4881112;29;20834;-79
2023/10/12 02:52:53;;;;;;;13.63;4.07;;;12.90;99.90;;;;;;4877919;29;20480;-79
2023/10/12 02:55:33;;;;;;;18.15;4.40;;;12.60;99.90;;;;;;4888026;29;20927;-77
2023/10/12 02:58:07;;;;;;;16.30;4.20;;;12.50;99.90;;;;;;4895749;29;20435;-77
2023/10/12 03:03:07;;;;;;;20.55;5.13;;;12.80;99.90;;;;;;4885642;29;20419;-77
2023/10/12 03:05:34;;;;;;;16.95;4.53;;;12.60;99.90;;;;;;4869662;29;20475;-77
2023/10/12 03:08:06;;;;;;;18.73;4.82;;;12.30;99.90;;;;;;4877573;29;20421;-78
2023/10/12 03:10:32;;;;;;;17.80;4.30;;;12.50;99.90;;;;;;4891200;29;20490;-78
2023/10/12 03:13:04;;;;;;;20.40;4.80;;;12.20;99.90;;;;;;4873220;29;20428;-78
2023/10/12 03:15:41;;;;;;;17.90;4.95;;;12.90;99.90;;;;;;4892215;29;20446;-78
2023/10/12 03:18:11;;;;;;;14.82;4.55;;;12.90;99.90;;;;;;4884762;29;20421;-77
2023/10/12 03:20:38;;;;;;;19.23;4.75;;;12.50;99.90;;;;;;4886574;29;20436;-77
2023/10/12 03:23:16;;;;;;;16.25;4.25;;;12.50;99.90;;;;;;4880782;29;20421;-78
2023/10/12 03:25:46;;;;;;;16.63;4.93;;;12.50;99.90;;;;;;4900689;29;20420;-78
2023/10/12 03:31:11;;;;;;;15.55;4.47;;;12.50;99.90;;;;;;4896517;29;20436;-78
2023/10/12 03:33:39;;;;;;;17.67;4.90;;;12.50;99.90;;;;;;4889602;29;20801;-78
2023/10/12 03:36:22;;;;;;;18.25;5.07;;;12.60;99.90;;;;;;4909344;29;20442;-78
2023/10/12 03:47:14;;;;;;;16.83;5.03;;;12.50;99.90;;;;;;4867206;29;20528;-77
2023/10/12 03:49:45;;;;;;;16.73;4.60;;;12.80;99.90;;;;;;4890926;29;20487;-77
2023/10/12 03:52:14;;;;;;;21.63;5.07;;;12.30;99.90;;;;;;4879027;29;20424;-76
2023/10/12 04:02:39;;;;;;;19.73;4.97;;;12.40;99.90;;;;;;4885952;29;20565;-77
2023/10/12 04:05:21;;;;;;;20.33;5.15;;;12.60;99.90;;;;;;4893801;29;20433;-77
2023/10/12 04:13:55;;;;;;;16.52;5.28;;;12.00;99.90;;;;;;4893853;29;20450;-77
2023/10/12 04:19:29;;;;;;;14.90;4.80;;;12.20;99.90;;;;;;4890687;29;20434;-77
2023/10/12 04:21:35;;;;;;;13.75;4.82;;;12.40;99.90;;;;;;4889885;29;20489;-77
2023/10/12 04:27:09;;;;;;;20.10;4.88;;;;;;;;;;4899360;29;20418;-74
2023/10/12 04:29:38;;;;;;;19.77;4.80;;;12.20;99.90;;;;;;4883244;29;20438;-75
2023/10/12 04:32:52;;;;;;;21.58;5.15;;;12.40;99.90;;;;;;4876446;29;20421;-75
2023/10/12 04:34:51;;;;;;;22.50;4.70;;;;;;;;;;4891918;29;20429;-75
2023/10/12 04:37:25;;;;;;;17.33;4.72;;;;;;;;;;4884317;29;20464;-75
2023/10/12 04:39:57;;;;;;;17.45;4.85;;;;;;;;;;4887134;29;20906;-76
2023/10/12 04:42:27;;;;;;;17.30;4.63;;;;;;;;;;4889281;29;20443;-76
2023/10/12 04:47:30;;;;;;;16.63;4.60;;;;;;;;;;4888208;29;20434;-75
2023/10/12 04:49:57;;;;;;;18.88;4.63;;;;;;;;;;4896928;29;20426;-75
2023/10/12 04:52:32;;;;;;;17.90;4.15;;;;;;;;;;4896389;29;20423;-75
2023/10/12 04:55:06;;;;;;;16.30;4.55;;;;;;;;;;4886151;29;20427;-74
2023/10/12 04:57:38;;;;;;;15.60;3.95;;;;;;;;;;4886247;29;20482;-75
2023/10/12 05:05:54;;;;;;;15.07;3.60;;;;;;;;;;4882238;29;20428;-74
2023/10/12 05:08:03;;;;;;;12.15;3.40;;;11.80;99.90;;;;;;4889586;29;20423;-75
2023/10/12 05:13:21;;;;;;;16.80;4.00;;;11.90;99.90;;;;;;4897759;29;20546;-75
2023/10/12 05:16:04;;;;;;;15.60;4.40;;;;;;;;;;4893270;29;21215;-76
2023/10/12 05:18:31;;;;;;;18.40;4.55;;;;;;;;;;4877358;29;20430;-76
2023/10/12 05:20:59;;;;;;;19.52;4.30;;;;;;;;;;4893875;29;20502;-76
2023/10/12 05:23:24;;;;;;;17.02;4.10;;;12.10;99.90;;;;;;4898463;29;20911;-76
2023/10/12 05:28:21;;;;;;;18.10;4.50;;;11.70;99.90;;;;;;4891265;29;20480;-76
2023/10/12 05:30:55;;;;;;;13.35;4.25;;;12.00;99.90;;;;;;4875579;29;20440;-75
2023/10/12 05:36:09;;;;;;;16.63;4.20;;;;;;;;;;4886531;29;20443;-76
2023/10/12 05:38:48;;;;;;;15.77;4.07;;;12.00;99.90;;;;;;4880557;29;20834;-76
2023/10/12 05:43:56;;;;;;;19.77;4.50;;;;;;;;;;4896917;29;20446;-76
2023/10/12 05:46:23;;;;;;;19.08;4.53;;;;;;;;;;4885153;29;20914;-76
2023/10/12 05:48:51;;;;;;;15.67;4.73;;;;;;;;;;4879800;29;20440;-76
2023/10/12 05:51:21;;;;;;;15.18;4.35;;;;;;;;;;4885291;29;20433;-75
2023/10/12 05:54:01;;;;;;;14.55;4.20;;;;;;;;;;4887690;29;20484;-76
2023/10/12 05:56:29;;;;;;;17.20;4.57;;;;;;;;;;4872627;29;20439;-77
2023/10/12 05:58:55;;;;;;;15.95;4.53;;;;;;;;;;4880804;29;20498;-76
2023/10/12 06:01:35;;;;;;;17.67;4.63;;;;;;;;;;4869407;29;20924;-77
2023/10/12 06:04:05;;;;;;;18.98;4.70;;;11.80;99.90;;;;;;4887939;29;20921;-76
2023/10/12 06:06:35;;;;;;;14.67;5.00;;;;;;;;;;4883966;29;20432;-77
2023/10/12 06:09:04;;;;;;;16.42;4.70;;;11.40;99.90;;;;;;4871287;29;20920;-77
2023/10/12 06:11:30;;;;;;;16.63;5.20;;;;;;;;;;4880830;29;20503;-77
2023/10/12 06:13:59;;;;;;;17.58;4.50;;;;;;;;;;4894007;29;20419;-77
2023/10/12 06:16:26;;;;;;;16.48;4.55;;;;;;;;;;4881831;29;20432;-77
2023/10/12 06:18:54;;;;;;;16.98;5.35;;;;;;;;;;4890329;29;20461;-76
2023/10/12 06:21:20;;;;;;;15.55;4.60;;;;;;;;;;4892782;29;20411;-77
2023/10/12 06:23:50;;;;;;;14.35;4.70;;;;;;;;;;4877859;29;20499;-77
2023/10/12 06:26:28;;;;;;;17.83;5.22;;;;;;;;;;4883450;29;20421;-77
2023/10/12 06:28:55;;;;;;;16.88;4.97;;;;;;;;;;4881834;29;20432;-77
2023/10/12 06:31:21;;;;;;;20.33;5.22;;;;;;;;;;4881774;29;20940;-77
2023/10/12 06:33:49;;;;;;;13.95;4.47;;;;;;;;;;4885309;29;20471;-77
2023/10/12 06:36:22;;;;;;;17.10;5.07;;;11.40;99.90;;;;;;4888139;29;20473;-78
2023/10/12 06:46:48;;;;;;;16.88;4.20;;;;;;;;;;4885067;29;20434;-77
2023/10/12 06:49:33;;;;;;;16.93;4.20;;;;;;;;;;4887759;29;20449;-76
2023/10/12 06:52:10;;;;;;;12.82;3.70;;;;;;;;;;4884115;29;20424;-77
2023/10/12 06:54:59;;;;;;;14.23;3.83;;;;;;;;;;4879955;29;20573;-77
2023/10/12 07:00:17;;;;;;;13.00;3.28;;;;;;;;;;4892131;29;20453;-77
2023/10/12 07:02:43;;;;;;;13.00;3.60;;;;;;;;;;4884334;29;20932;-76
2023/10/12 07:05:09;;;;;;;19.00;3.63;;;;;;;;;;4882120;29;20421;-76
2023/10/12 07:07:41;;;;;;;14.27;3.67;;;;;;;;;;4870297;29;21113;-77
2023/10/12 07:12:41;;;;;;;13.88;3.00;;;;;;;;;;4887953;29;20645;-77
2023/10/12 07:15:11;;;;;;;13.82;3.30;;;12.20;99.90;;;;;;4886819;29;20924;-77
2023/10/12 07:17:43;;;;;;;8.63;2.70;;;11.90;99.90;;;;;;4889407;29;20443;-75
2023/10/12 07:20:25;;;;;;;15.52;2.90;;;;;;;;;;4889922;29;20419;-76
2023/10/12 07:22:51;;;;;;;12.98;3.05;;;;;;;;;;4886030;29;20770;-76
2023/10/12 07:25:22;;;;;;;12.77;2.45;;;12.40;99.90;;;;;;4889322;29;20438;-75
2023/10/12 07:27:58;;;;;;;9.65;2.60;;;;;;;;;;4885765;29;20433;-75
2023/10/12 07:30:33;;;;;;;12.83;2.47;;;;;;;;;;4881405;29;20488;-75
2023/10/12 07:33:04;;;;;;;11.15;2.60;;;;;;;;;;4873399;29;20728;-75
2023/10/12 07:35:42;;;;;;;11.80;2.77;;;12.50;99.90;;;;;;4882303;29;20968;-76
2023/10/12 07:38:13;;;;;;;12.32;2.50;;;12.40;99.90;;;;;;4883465;29;20496;-76
2023/10/12 07:40:51;;;;;;;12.38;2.40;;;12.30;99.90;;;;;;4890106;29;20422;-76
2023/10/12 07:43:20;;;;;;;10.48;2.47;;;;;;;;;;4889526;29;20537;-76
2023/10/12 07:45:49;;;;;;;10.50;2.72;;;12.40;99.90;;;;;;4887536;29;20428;-77
2023/10/12 07:48:29;;;;;;;10.88;2.60;;;12.50;99.90;;;;;;4889881;29;20418;-81
2023/10/12 07:50:56;;;;;;;9.75;2.22;;;12.60;99.90;;;;;;4892624;29;20787;-80
2023/10/12 07:53:24;;;;;;;9.07;2.20;;;12.30;99.90;;;;;;4876517;29;20500;-80
2023/10/12 07:55:53;;;;;;;13.13;2.47;;;12.50;99.90;;;;;;4879774;29;20476;-80
2023/10/12 07:58:21;;;;;;;10.07;2.20;;;12.70;99.90;;;;;;4892194;29;20557;-80
2023/10/12 08:00:59;;;;;;;12.47;2.43;;;12.60;99.90;;;;;;4894013;29;20950;-79
2023/10/12 08:03:36;;;;;;;8.25;2.13;;;12.80;99.90;;;;;;4875174;29;20437;-78
2023/10/12 08:06:08;;;;;;;9.40;2.15;;;12.60;99.90;;;;;;4891877;29;20473;-79
2023/10/12 08:08:34;;;;;;;12.00;2.60;;;12.50;99.90;;;;;;4880264;29;20445;-78
2023/10/12 08:11:09;;;;;;;11.95;2.53;;;12.60;99.90;;;;;;4879844;29;20828;-78
2023/10/12 08:13:39;;;;;;;10.30;2.35;;;12.40;99.90;;;;;;4875847;29;20449;-78
2023/10/12 08:16:13;;;;;;;8.60;2.30;;;12.70;99.90;;;;;;4880435;29;20796;-77
2023/10/12 08:21:32;;;;;;;8.00;1.93;;;12.80;99.90;;;;;;4891160;29;20450;-77
2023/10/12 08:26:47;;;;;;;13.25;2.92;;;12.70;99.90;;;;;;4887010;29;20477;-78
2023/10/12 08:29:18;;;;;;;9.73;2.22;;;12.70;99.90;;;;;;4879089;29;20437;-78
2023/10/12 08:31:44;;;;;;;8.50;2.20;;;12.70;99.90;;;;;;4878493;29;20524;-78
2023/10/12 08:34:41;;;;;;;9.80;2.00;;;12.70;99.90;;;;;;4890797;29;20423;-78
2023/10/12 08:45:08;;;;;;;9.63;2.28;;;12.90;99.90;;;;;;4882178;29;20420;-78
2023/10/12 08:50:08;;;;;;;10.55;2.70;;;12.70;99.90;;;;;;4886456;29;20417;-78
2023/10/12 08:52:38;;;;;;;7.80;2.03;;;13.30;99.90;;;;;;4885816;29;21079;-79
2023/10/12 08:55:12;;;;;;;12.73;2.30;;;13.40;99.90;;;;;;4889245;29;20426;-78
2023/10/12 08:58:03;;;;;;;11.15;2.10;;;13.30;99.90;;;;;;4881066;29;20581;-78
2023/10/12 09:03:45;;;;;;;9.27;2.08;;;13.10;99.90;;;;;;4881481;29;20439;-77
2023/10/12 09:05:51;;;;;;;9.40;1.80;;;13.30;99.90;;;;;;4872587;29;20417;-77
2023/10/12 09:11:02;;;;;;;10.55;2.28;;;13.00;99.90;;;;;;4883672;29;20432;-77
2023/10/12 09:13:35;;;;;;;10.05;2.30;;;12.80;99.90;;;;;;4888729;29;20512;-77
2023/10/12 09:16:15;;;;;;;7.93;2.10;;;13.10;99.90;;;;;;4888383;29;20492;-77
2023/10/12 09:18:56;;;;;;;11.80;2.03;;;13.30;99.90;;;;;;4884966;29;20479;-78
2023/10/12 09:21:28;;;;;;;7.63;1.85;;;13.30;99.90;;;;;;4885682;29;20426;-77
2023/10/12 09:26:46;;;;;;;8.20;2.05;;;13.00;99.90;;;;;;4894425;29;20527;-78
2023/10/12 09:29:21;;;;;;;9.20;2.10;;;13.00;99.90;;;;;;4885015;29;20435;-78
2023/10/12 09:31:57;;;;;;;9.32;2.20;;;13.40;99.90;;;;;;4900991;29;20493;-78
2023/10/12 09:34:42;;;;;;;15.00;2.50;;;13.30;99.90;;;;;;4883898;29;20921;-78
2023/10/12 09:37:16;;;;;;;11.50;2.25;;;13.40;99.90;;;;;;4906187;29;20525;-76
2023/10/12 09:39:46;;;;;;;10.45;2.60;;;13.20;99.90;;;;;;4892738;29;20434;-75
2023/10/12 09:42:22;;;;;;;10.07;2.30;;;13.40;99.90;;;;;;4893204;29;20446;-75
2023/10/12 09:44:53;;;;;;;10.52;2.10;;;13.70;99.90;;;;;;4886617;29;20428;-76
2023/10/12 09:47:25;;;;;;;9.35;1.90;;;13.40;99.90;;;;;;4893394;29;20437;-76
2023/10/12 09:49:58;;;;;;;7.70;1.85;;;14.00;99.90;;;;;;4886389;29;20420;-76
2023/10/12 09:52:25;;;;;;;9.98;1.92;;;13.60;99.90;;;;;;4887709;29;20463;-76
2023/10/12 09:55:13;;;;;;;7.85;1.70;;;14.00;99.90;;;;;;4886879;29;20420;-76
2023/10/12 09:57:49;;;;;;;8.68;1.83;;;14.00;99.90;;;;;;4887140;29;20427;-76
2023/10/12 10:00:28;;;;;;;9.93;2.50;;;13.50;99.90;;;;;;4893379;29;20435;-76
2023/10/12 10:03:03;;;;;;;9.38;1.90;;;13.70;99.90;;;;;;4884173;29;20776;-76
2023/10/12 10:08:26;;;;;;;8.73;1.88;;;14.40;99.90;;;;;;4894218;29;20426;-75
2023/10/12 10:10:57;;;;;;;9.18;2.00;;;14.20;99.90;;;;;;4892379;29;20758;-76
2023/10/12 10:13:55;;;;;;;9.23;2.08;;;14.40;99.90;;;;;;4885363;29;20421;-75
2023/10/12 10:16:21;;;;;;;10.48;2.05;;;14.40;99.90;;;;;;4884020;29;20450;-75
2023/10/12 10:18:57;;;;;;;10.43;1.88;;;14.50;99.90;;;;;;4869054;29;20428;-76
2023/10/12 10:21:31;;;;;;;10.95;2.38;;;14.80;99.90;;;;;;4890002;29;20430;-75
2023/10/12 10:23:57;;;;;;;8.25;1.65;;;15.10;99.90;;;;;;4897686;29;20452;-75
2023/10/12 10:26:30;;;;;;;10.55;1.80;;;15.00;99.90;;;;;;4883830;29;20429;-75
2023/10/12 10:29:08;;;;;;;9.07;1.80;;;15.40;99.90;;;;;;4893121;29;20433;-75
2023/10/12 10:31:43;;;;;;;8.43;1.85;;;15.60;99.90;;;;;;4883057;29;20528;-75
2023/10/12 10:34:12;;;;;;;9.75;1.80;;;15.60;99.90;;;;;;4908128;29;20427;-75
2023/10/12 10:36:38;;;;;;;9.30;2.00;;;15.50;99.90;;;;;;4905877;29;20965;-76
2023/10/12 10:41:54;;;;;;;10.32;2.05;;;15.70;99.90;;;;;;4884515;29;20429;-76
2023/10/12 10:44:22;;;;;;;10.82;2.08;;;15.90;99.90;;;;;;4890086;29;20470;-75
2023/10/12 10:46:52;;;;;;;11.20;2.38;;;16.00;99.90;;;;;;4887438;29;20419;-75
2023/10/12 10:49:19;;;;;;;8.95;1.80;;;15.80;99.90;;;;;;4888667;29;20463;-75
2023/10/12 10:52:26;;;;;;;9.07;2.28;;;16.30;99.90;;;;;;4881148;29;20859;-75
2023/10/12 10:54:56;;;;;;;12.30;2.22;;;16.30;99.90;;;;;;4887334;29;20432;-76
2023/10/12 10:57:31;;;;;;;11.40;1.93;;;16.10;99.90;;;;;;4886393;29;20540;-76
2023/10/12 10:59:56;;;;;;;8.85;1.92;;;16.40;99.90;;;;;;4888934;29;20448;-76
2023/10/12 11:02:22;;;;;;;11.23;2.13;;;16.10;99.90;;;;;;4885898;29;20420;-76
2023/10/12 11:04:51;;;;;;;11.88;2.58;;;15.80;99.90;;;;;;4880540;29;20785;-75
2023/10/12 11:07:17;;;;;;;16.60;2.10;;;15.80;99.90;;;;;;4886146;29;20751;-75
2023/10/12 11:12:20;;;;;;;9.53;2.10;;;16.20;99.90;;;;;;4893971;29;20430;-75
2023/10/12 11:14:58;;;;;;;9.20;2.30;;;15.70;99.90;;;;;;4883860;29;20571;-74
2023/10/12 11:17:35;;;;;;;9.60;2.15;;;15.50;99.90;;;;;;4888581;29;20434;-74
2023/10/12 11:20:07;;;;;;;9.63;2.10;;;15.70;99.90;;;;;;4884323;29;20462;-74
2023/10/12 11:22:42;;;;;;;10.20;1.95;;;15.80;99.90;;;;;;4887072;29;20418;-74
2023/10/12 11:25:12;;;;;;;6.00;1.63;;;15.90;99.90;;;;;;4888499;29;20929;-73
2023/10/12 11:27:39;;;;;;;7.97;1.60;;;15.70;99.90;;;;;;4904813;29;20425;-74
2023/10/12 11:30:12;;;;;;;8.50;2.13;;;15.70;99.90;;;;;;4878938;29;20446;-74
2023/10/12 11:33:11;;;;;;;8.68;1.95;;;15.60;99.90;;;;;;4904553;29;20459;-74
2023/10/12 11:35:41;;;;;;;9.32;2.30;;;15.90;99.90;;;;;;4871300;29;20516;-73
2023/10/12 11:38:17;;;;;;;13.70;2.60;;;15.80;99.90;;;;;;4883985;29;20433;-74
2023/10/12 11:40:52;;;;;;;11.70;2.28;;;15.70;99.90;;;;;;4887357;29;20803;-74
2023/10/12 11:43:19;;;;;;;9.60;1.73;;;15.40;99.90;;;;;;4899705;29;20468;-74
2023/10/12 11:45:58;;;;;;;8.05;1.98;;;15.50;99.90;;;;;;4884308;29;20523;-75
2023/10/12 11:48:27;;;;;;;11.17;2.40;;;15.60;99.90;;;;;;4870041;29;20429;-74
2023/10/12 11:50:53;;;;;;;12.17;2.03;;;15.50;99.90;;;;;;4892902;29;20411;-74
2023/10/12 11:53:19;;;;;;;8.73;2.00;;;15.50;99.90;;;;;;4882320;29;20452;-74
2023/10/12 11:55:48;;;;;;;7.22;1.95;;;15.40;99.90;;;;;;4886467;29;20529;-74
2023/10/12 11:58:19;;;;;;;10.05;1.88;;;15.50;99.90;;;;;;4877753;29;20922;-74
2023/10/12 12:00:48;;;;;;;7.73;1.87;;;15.60;99.90;;;;;;4894846;29;20504;-75
2023/10/12 12:03:15;;;;;;;8.57;2.10;;;15.50;99.90;;;;;;4887994;29;20826;-74
2023/10/12 12:05:43;;;;;;;8.82;2.10;;;15.40;99.90;;;;;;4885532;29;20478;-73
2023/10/12 12:08:17;;;;;;;9.27;1.83;;;15.40;99.90;;;;;;4887753;29;20426;-74
2023/10/12 12:13:20;;;;;;;7.82;2.50;;;15.50;99.90;;;;;;4893127;29;23682;-76
2023/10/12 12:15:46;;;;;;;11.30;2.50;;;15.50;99.90;;;;;;4883149;29;20436;-76
2023/10/12 12:18:19;;;;;;;9.93;3.10;;;15.50;99.90;;;;;;4880832;29;20785;-74
2023/10/12 12:20:51;;;;;;;12.35;2.25;;;15.50;99.90;;;;;;4893744;29;20429;-74
2023/10/12 12:23:27;;;;;;;6.78;1.60;;;15.40;99.90;;;;;;4884086;29;20490;-74
2023/10/12 12:26:07;;;;;;;8.47;2.17;;;15.40;99.90;;;;;;4887045;29;20500;-73
2023/10/12 12:28:33;;;;;;;8.63;1.98;;;15.10;99.90;;;;;;4895037;29;20503;-75
2023/10/12 12:31:10;;;;;;;9.93;1.98;;;15.30;99.90;;;;;;4892663;29;20482;-74
2023/10/12 12:33:41;;;;;;;10.38;2.38;;;15.30;99.90;;;;;;4891845;29;20415;-74
2023/10/12 12:36:10;;;;;;;8.07;1.70;;;15.50;99.90;;;;;;4883287;29;20945;-74
2023/10/12 12:41:05;;;;;;;9.35;2.10;;;15.20;99.90;;;;;;4889997;29;20668;-75
2023/10/12 12:43:35;;;;;;;10.63;2.10;;;15.00;99.90;;;;;;4896189;29;20438;-76
2023/10/12 12:46:01;;;;;;;11.30;2.03;;;15.00;99.90;;;;;;4883277;29;20839;-76
2023/10/12 12:48:26;;;;;;;8.20;2.20;;;15.00;99.90;;;;;;4876164;29;20440;-75
2023/10/12 12:50:52;;;;;;;9.50;2.20;;;15.20;99.90;;;;;;4891212;29;20489;-75
2023/10/12 12:53:20;;;;;;;12.43;2.60;;;15.20;99.90;;;;;;4890995;29;20438;-76
2023/10/12 12:55:46;;;;;;;11.17;2.30;;;15.10;99.90;;;;;;4893383;29;20472;-75
2023/10/12 12:58:17;;;;;;;12.70;1.90;;;15.20;99.90;;;;;;4887673;29;20451;-74
2023/10/12 13:00:46;;;;;;;13.38;2.00;;;15.30;99.90;;;;;;4886486;29;20427;-75
2023/10/12 13:03:16;;;;;;;12.60;2.28;;;15.50;99.90;;;;;;4890420;29;20505;-74
2023/10/12 13:05:42;;;;;;;7.97;1.90;;;15.30;99.90;;;;;;4867236;29;20961;-74
2023/10/12 13:08:11;;;;;;;8.18;2.40;;;15.20;99.90;;;;;;4884762;29;20435;-74
2023/10/12 13:10:39;;;;;;;8.32;1.80;;;15.10;99.90;;;;;;4881157;29;20500;-75
2023/10/12 13:13:06;;;;;;;8.63;2.10;;;15.30;99.90;;;;;;4868069;29;20435;-75
2023/10/12 13:15:32;;;;;;;10.55;2.17;;;15.00;99.90;;;;;;4884511;29;20437;-75
2023/10/12 13:18:01;;;;;;;10.02;2.30;;;15.30;99.90;;;;;;4881080;29;20976;-75
2023/10/12 13:20:29;;;;;;;10.85;2.10;;;15.40;99.90;;;;;;4890827;29;20426;-76
2023/10/12 13:22:56;;;;;;;9.23;2.42;;;15.10;99.90;;;;;;4900188;29;20432;-77
2023/10/12 13:25:21;;;;;;;12.48;2.13;;;15.30;99.90;;;;;;4885679;29;20812;-76
2023/10/12 13:27:51;;;;;;;10.05;2.10;;;14.90;99.90;;;;;;4889344;29;20463;-75
2023/10/12 13:30:17;;;;;;;6.40;1.77;;;15.10;99.90;;;;;;4893126;29;20510;-76
2023/10/12 13:32:43;;;;;;;9.03;1.83;;;14.90;99.90;;;;;;4908148;29;20985;-75
2023/10/12 13:35:28;;;;;;;11.65;1.90;;;15.20;99.90;;;;;;4882107;29;20961;-75
2023/10/12 13:37:55;;;;;;;11.10;2.10;;;14.90;99.90;;;;;;4890129;29;20435;-76
2023/10/12 13:40:21;;;;;;;10.98;1.80;;;14.90;99.90;;;;;;4885102;29;20416;-75
2023/10/12 13:42:47;;;;;;;8.80;2.15;;;14.90;99.90;;;;;;4887684;29;20952;-76
2023/10/12 13:45:13;;;;;;;9.75;2.20;;;14.70;99.90;;;;;;4888669;29;20512;-76
2023/10/12 13:47:40;;;;;;;12.57;2.20;;;14.60;99.90;;;;;;4868899;29;20472;-76
2023/10/12 13:50:10;;;;;;;8.98;1.92;;;14.60;99.90;;;;;;4889554;29;20420;-76
2023/10/12 13:52:39;;;;;;;11.65;2.50;;;14.80;99.90;;;;;;4890317;29;20780;-76
2023/10/12 13:55:13;;;;;;;15.98;2.80;;;14.90;99.90;;;;;;4891941;29;20457;-75
2023/10/12 13:57:55;;;;;;;8.00;2.08;;;14.70;99.90;;;;;;4904639;29;21077;-75
2023/10/12 14:00:27;;;;;;;12.68;2.03;;;15.00;99.90;;;;;;4879939;29;20440;-75
2023/10/12 14:02:56;;;;;;;8.48;1.95;;;14.90;99.90;;;;;;4884023;29;20476;-75
2023/10/12 14:05:29;;;;;;;9.75;1.80;;;14.80;99.90;;;;;;4889338;29;20424;-75
2023/10/12 14:08:01;;;;;;;11.70;2.10;;;14.70;99.90;;;;;;4891793;29;20420;-75
2023/10/12 14:10:27;;;;;;;11.77;2.22;;;14.60;99.90;;;;;;4886918;29;20419;-74
2023/10/12 14:12:53;;;;;;;11.10;2.47;;;14.70;99.90;;;;;;4886913;29;20439;-74
2023/10/12 14:15:21;;;;;;;9.43;1.97;;;14.80;99.90;;;;;;4887860;29;20433;-75
2023/10/12 14:17:47;;;;;;;8.38;2.13;;;14.70;99.90;;;;;;4878553;29;20425;-74
2023/10/12 14:20:13;;;;;;;12.35;2.10;;;14.80;99.90;;;;;;4888298;29;20767;-74
2023/10/12 14:22:44;;;;;;;10.60;2.22;;;14.60;99.90;;;;;;4883663;29;20439;-75
2023/10/12 14:25:17;;;;;;;11.40;2.40;;;14.50;99.90;;;;;;4890042;29;20438;-75
2023/10/12 14:27:42;;;;;;;8.00;1.88;;;14.60;99.90;;;;;;4890458;29;20507;-75
2023/10/12 14:30:15;;;;;;;11.52;2.58;;;14.60;99.90;;;;;;4871584;29;20967;-74
2023/10/12 14:32:41;;;;;;;14.10;2.10;;;14.40;99.90;;;;;;4865074;29;20436;-74
2023/10/12 14:35:09;;;;;;;9.40;2.38;;;14.30;99.90;;;;;;4871336;29;20419;-75
2023/10/12 14:37:36;;;;;;;9.17;2.27;;;14.50;99.90;;;;;;4888750;29;20901;-75
2023/10/12 14:40:10;;;;;;;8.83;1.93;;;14.40;99.90;;;;;;4878416;29;20424;-75
2023/10/12 14:42:40;;;;;;;11.38;2.33;;;14.40;99.90;;;;;;4887212;29;20431;-75
2023/10/12 14:45:10;;;;;;;10.18;2.28;;;;;;;;;;4885684;29;20518;-75
2023/10/12 14:47:36;;;;;;;10.60;2.15;;;;;;;;;;4889748;29;20929;-75
2023/10/12 14:50:05;;;;;;;10.15;1.90;;;14.20;99.90;;;;;;4879681;29;20443;-75
2023/10/12 14:52:38;;;;;;;9.98;2.00;;;14.20;99.90;;;;;;4890399;29;20431;-75
2023/10/12 14:55:10;;;;;;;12.80;2.20;;;14.10;99.90;;;;;;4876043;29;20427;-74
2023/10/12 14:57:40;;;;;;;12.93;2.30;;;14.10;99.90;;;;;;4886337;29;20499;-74
2023/10/12 15:00:14;;;;;;;9.70;2.50;;;14.20;99.90;;;;;;4883833;29;20787;-74
2023/10/12 15:02:41;;;;;;;9.43;1.95;;;14.20;99.90;;;;;;4889605;29;20464;-75
2023/10/12 15:05:11;;;;;;;8.68;2.53;;;14.10;99.90;;;;;;4890047;29;20462;-74
2023/10/12 15:07:37;;;;;;;9.43;2.17;;;14.20;99.90;;;;;;4882744;29;20489;-75
2023/10/12 15:10:06;;;;;;;11.10;2.10;;;;;;;;;;4892429;29;20426;-75